createdAt,value
2019-04-07T00:00:28.471Z,0.00
2019-04-07T00:01:29.045Z,0.00
2019-04-07T00:02:28.448Z,0.00
2019-04-07T00:03:28.828Z,0.00
2019-04-07T00:04:28.450Z,0.00
2019-04-07T00:05:28.418Z,0.00
2019-04-07T00:06:28.403Z,0.00
2019-04-07T00:07:28.507Z,0.00
2019-04-07T00:08:28.381Z,0.00
2019-04-07T00:09:28.680Z,0.00
2019-04-07T00:10:28.769Z,0.00
2019-04-07T00:11:28.426Z,0.00
2019-04-07T00:12:29.275Z,0.00
2019-04-07T00:13:28.326Z,0.00
2019-04-07T00:14:28.336Z,0.00
2019-04-07T00:15:28.306Z,0.00
2019-04-07T00:16:28.292Z,0.00
2019-04-07T00:17:28.577Z,0.00
2019-04-07T00:18:28.280Z,0.00
2019-04-07T00:19:28.378Z,0.00
2019-04-07T00:20:28.248Z,0.00
2019-04-07T00:21:28.237Z,0.00
2019-04-07T00:22:28.227Z,0.00
2019-04-07T00:23:28.492Z,0.00
2019-04-07T00:24:28.228Z,0.00
2019-04-07T00:25:28.700Z,0.00
2019-04-07T00:26:28.195Z,0.00
2019-04-07T00:27:28.175Z,0.00
2019-04-07T00:28:28.165Z,0.00
2019-04-07T00:29:28.813Z,0.00
2019-04-07T00:30:28.157Z,0.00
2019-04-07T00:31:28.125Z,0.00
2019-04-07T00:32:28.428Z,0.00
2019-04-07T00:33:28.398Z,0.00
2019-04-07T00:34:28.093Z,0.00
2019-04-07T00:35:31.990Z,0.00
2019-04-07T00:36:29.068Z,0.00
2019-04-07T00:37:28.328Z,0.00
2019-04-07T00:38:28.369Z,0.00
2019-04-07T00:39:28.065Z,0.00
2019-04-07T00:40:28.378Z,0.00
2019-04-07T00:41:28.013Z,0.00
2019-04-07T00:42:28.005Z,0.00
2019-04-07T00:43:29.045Z,0.00
2019-04-07T00:44:27.982Z,0.00
2019-04-07T00:45:27.989Z,0.00
2019-04-07T00:46:27.985Z,0.00
2019-04-07T00:47:28.549Z,0.00
2019-04-07T00:48:28.634Z,0.00
2019-04-07T00:49:28.135Z,0.00
2019-04-07T00:50:28.387Z,0.00
2019-04-07T00:51:27.907Z,0.00
2019-04-07T00:52:28.367Z,0.00
2019-04-07T00:53:27.884Z,0.00
2019-04-07T00:54:28.108Z,0.00
2019-04-07T00:55:28.342Z,0.00
2019-04-07T00:56:27.974Z,0.00
2019-04-07T00:57:28.568Z,0.00
2019-04-07T00:58:28.151Z,0.00
2019-04-07T00:59:27.812Z,0.00
2019-04-07T01:00:28.110Z,0.00
2019-04-07T01:01:27.794Z,0.00
2019-04-07T01:02:27.781Z,0.00
2019-04-07T01:03:27.768Z,0.00
2019-04-07T01:04:27.756Z,0.00
2019-04-07T01:05:35.675Z,0.00
2019-04-07T01:06:29.435Z,0.00
2019-04-07T01:07:27.945Z,0.00
2019-04-07T01:08:28.162Z,0.00
2019-04-07T01:09:27.731Z,0.00
2019-04-07T01:10:27.752Z,0.00
2019-04-07T01:11:27.697Z,0.00
2019-04-07T01:12:28.170Z,0.00
2019-04-07T01:13:27.656Z,0.00
2019-04-07T01:14:27.878Z,0.00
2019-04-07T01:15:27.898Z,0.00
2019-04-07T01:16:27.622Z,0.00
2019-04-07T01:17:27.938Z,0.00
2019-04-07T01:18:27.858Z,0.00
2019-04-07T01:19:27.828Z,0.00
2019-04-07T01:20:27.581Z,0.00
2019-04-07T01:21:28.107Z,0.00
2019-04-07T01:22:27.566Z,0.00
2019-04-07T01:23:28.194Z,0.00
2019-04-07T01:24:27.706Z,0.00
2019-04-07T01:25:27.521Z,0.00
2019-04-07T01:26:27.988Z,0.00
2019-04-07T01:27:27.851Z,0.00
2019-04-07T01:28:27.538Z,0.00
2019-04-07T01:29:27.478Z,0.00
2019-04-07T01:30:27.471Z,0.00
2019-04-07T01:31:27.596Z,0.00
2019-04-07T01:32:27.447Z,0.00
2019-04-07T01:33:27.767Z,0.00
2019-04-07T01:34:27.422Z,0.00
2019-04-07T01:35:27.631Z,0.00
2019-04-07T01:36:27.977Z,0.00
2019-04-07T01:37:27.533Z,0.00
2019-04-07T01:38:27.903Z,0.00
2019-04-07T01:39:27.370Z,0.00
2019-04-07T01:40:27.354Z,0.00
2019-04-07T01:41:27.560Z,0.00
2019-04-07T01:42:27.943Z,0.00
2019-04-07T01:43:27.325Z,0.00
2019-04-07T01:44:27.658Z,0.00
2019-04-07T01:45:27.859Z,0.00
2019-04-07T01:46:27.410Z,0.00
2019-04-07T01:47:27.707Z,0.00
2019-04-07T01:48:27.268Z,0.00
2019-04-07T01:49:27.342Z,0.00
2019-04-07T01:50:27.407Z,0.00
2019-04-07T01:51:27.401Z,0.00
2019-04-07T01:52:27.353Z,0.00
2019-04-07T01:53:27.212Z,0.00
2019-04-07T01:54:27.224Z,0.00
2019-04-07T01:55:27.737Z,0.00
2019-04-07T01:56:27.273Z,0.00
2019-04-07T01:57:27.242Z,0.00
2019-04-07T01:58:27.334Z,0.00
2019-04-07T01:59:27.147Z,0.00
2019-04-07T02:00:27.139Z,0.00
2019-04-07T02:01:27.390Z,0.00
2019-04-07T02:02:27.132Z,0.00
2019-04-07T02:03:27.592Z,0.00
2019-04-07T02:04:27.133Z,0.00
2019-04-07T02:05:27.078Z,0.00
2019-04-07T02:06:27.232Z,0.00
2019-04-07T02:07:27.287Z,0.00
2019-04-07T02:08:27.360Z,0.00
2019-04-07T02:09:27.029Z,0.00
2019-04-07T02:10:27.445Z,0.00
2019-04-07T02:11:27.550Z,0.00
2019-04-07T02:12:27.018Z,0.00
2019-04-07T02:13:27.487Z,0.00
2019-04-07T02:14:26.974Z,0.00
2019-04-07T02:15:26.968Z,0.00
2019-04-07T02:16:27.007Z,0.00
2019-04-07T02:17:27.242Z,0.00
2019-04-07T02:18:26.933Z,0.00
2019-04-07T02:19:26.951Z,0.00
2019-04-07T02:20:26.907Z,0.00
2019-04-07T02:21:27.408Z,0.00
2019-04-07T02:22:26.910Z,0.00
2019-04-07T02:23:26.894Z,0.00
2019-04-07T02:24:26.862Z,0.00
2019-04-07T02:25:27.226Z,0.00
2019-04-07T02:26:26.864Z,0.00
2019-04-07T02:27:26.853Z,0.00
2019-04-07T02:28:27.479Z,0.00
2019-04-07T02:29:27.163Z,0.00
2019-04-07T02:30:26.957Z,0.00
2019-04-07T02:31:27.438Z,0.00
2019-04-07T02:32:27.773Z,0.00
2019-04-07T02:33:27.639Z,0.00
2019-04-07T02:34:27.847Z,0.00
2019-04-07T02:35:26.743Z,0.00
2019-04-07T02:36:30.446Z,0.00
2019-04-07T02:37:27.834Z,0.00
2019-04-07T02:38:27.445Z,0.00
2019-04-07T02:39:27.070Z,0.00
2019-04-07T02:40:26.905Z,0.00
2019-04-07T02:41:27.554Z,0.00
2019-04-07T02:42:26.763Z,0.00
2019-04-07T02:43:27.427Z,0.00
2019-04-07T02:44:27.321Z,0.00
2019-04-07T02:45:26.971Z,0.00
2019-04-07T02:46:27.081Z,0.00
2019-04-07T02:47:26.627Z,0.00
2019-04-07T02:48:26.627Z,0.00
2019-04-07T02:49:26.587Z,0.00
2019-04-07T02:50:26.575Z,0.00
2019-04-07T02:51:26.559Z,0.00
2019-04-07T02:52:26.842Z,0.00
2019-04-07T02:53:26.766Z,0.00
2019-04-07T02:54:27.405Z,0.00
2019-04-07T02:55:26.750Z,0.00
2019-04-07T02:56:26.917Z,0.00
2019-04-07T02:57:27.092Z,0.00
2019-04-07T02:58:27.163Z,0.00
2019-04-07T02:59:27.268Z,0.00
2019-04-07T03:00:26.461Z,0.00
2019-04-07T03:01:27.690Z,0.00
2019-04-07T03:02:27.177Z,0.00
2019-04-07T03:03:27.235Z,0.00
2019-04-07T03:04:26.421Z,0.00
2019-04-07T03:05:26.736Z,0.00
2019-04-07T03:06:39.332Z,0.00
2019-04-07T03:07:27.379Z,0.00
2019-04-07T03:08:27.008Z,0.00
2019-04-07T03:09:26.368Z,0.00
2019-04-07T03:10:26.346Z,0.00
2019-04-07T03:11:26.337Z,0.00
2019-04-07T03:12:27.501Z,0.00
2019-04-07T03:13:26.333Z,0.00
2019-04-07T03:14:26.366Z,0.00
2019-04-07T03:15:26.958Z,0.00
2019-04-07T03:16:26.278Z,0.00
2019-04-07T03:17:26.268Z,0.00
2019-04-07T03:18:27.011Z,0.00
2019-04-07T03:19:26.298Z,0.00
2019-04-07T03:20:26.925Z,0.00
2019-04-07T03:21:26.748Z,0.00
2019-04-07T03:22:26.222Z,0.00
2019-04-07T03:23:26.492Z,0.00
2019-04-07T03:24:26.666Z,0.00
2019-04-07T03:25:26.193Z,0.00
2019-04-07T03:26:26.178Z,0.00
2019-04-07T03:27:27.019Z,0.00
2019-04-07T03:28:27.150Z,0.00
2019-04-07T03:29:26.928Z,0.00
2019-04-07T03:30:28.372Z,0.00
2019-04-07T03:31:27.358Z,0.00
2019-04-07T03:32:27.849Z,0.00
2019-04-07T03:33:27.755Z,0.00
2019-04-07T03:34:29.058Z,0.00
2019-04-07T03:35:29.053Z,0.00
2019-04-07T03:36:29.560Z,0.00
2019-04-07T03:37:35.087Z,0.00
2019-04-07T03:38:27.389Z,0.00
2019-04-07T03:39:26.551Z,0.00
2019-04-07T03:40:26.778Z,0.00
2019-04-07T03:41:26.001Z,0.00
2019-04-07T03:42:25.986Z,0.00
2019-04-07T03:43:25.974Z,0.00
2019-04-07T03:44:26.585Z,0.00
2019-04-07T03:45:26.468Z,0.00
2019-04-07T03:46:25.942Z,0.00
2019-04-07T03:47:26.101Z,0.00
2019-04-07T03:48:26.417Z,0.00
2019-04-07T03:49:25.929Z,0.00
2019-04-07T03:50:25.896Z,0.00
2019-04-07T03:51:26.538Z,0.00
2019-04-07T03:52:26.810Z,0.00
2019-04-07T03:53:26.413Z,0.00
2019-04-07T03:54:25.873Z,0.00
2019-04-07T03:55:25.842Z,0.00
2019-04-07T03:56:25.828Z,0.00
2019-04-07T03:57:25.822Z,0.00
2019-04-07T03:58:25.976Z,0.00
2019-04-07T03:59:26.782Z,0.00
2019-04-07T04:00:26.563Z,0.00
2019-04-07T04:01:25.978Z,0.00
2019-04-07T04:02:26.443Z,0.00
2019-04-07T04:03:25.806Z,0.00
2019-04-07T04:04:25.764Z,0.00
2019-04-07T04:05:26.080Z,0.00
2019-04-07T04:06:25.999Z,0.00
2019-04-07T04:07:33.088Z,0.00
2019-04-07T04:08:26.693Z,0.00
2019-04-07T04:09:25.686Z,0.00
2019-04-07T04:10:25.694Z,0.00
2019-04-07T04:11:25.660Z,0.00
2019-04-07T04:12:25.767Z,0.00
2019-04-07T04:13:25.638Z,0.00
2019-04-07T04:14:25.627Z,0.00
2019-04-07T04:15:26.345Z,0.00
2019-04-07T04:16:25.771Z,0.00
2019-04-07T04:17:25.603Z,0.00
2019-04-07T04:18:26.396Z,0.00
2019-04-07T04:19:27.026Z,0.00
2019-04-07T04:20:25.580Z,0.00
2019-04-07T04:21:25.959Z,0.00
2019-04-07T04:22:26.049Z,0.00
2019-04-07T04:23:26.130Z,0.00
2019-04-07T04:24:26.616Z,0.00
2019-04-07T04:25:26.300Z,0.00
2019-04-07T04:26:25.533Z,0.00
2019-04-07T04:27:25.483Z,0.00
2019-04-07T04:28:25.469Z,0.00
2019-04-07T04:29:26.463Z,0.00
2019-04-07T04:30:25.727Z,0.00
2019-04-07T04:31:25.557Z,0.00
2019-04-07T04:32:25.622Z,0.00
2019-04-07T04:33:25.518Z,0.00
2019-04-07T04:34:25.411Z,0.00
2019-04-07T04:35:26.547Z,0.00
2019-04-07T04:36:25.412Z,0.00
2019-04-07T04:37:37.582Z,0.00
2019-04-07T04:38:26.360Z,0.00
2019-04-07T04:39:25.350Z,0.00
2019-04-07T04:40:25.358Z,0.00
2019-04-07T04:41:25.331Z,0.00
2019-04-07T04:42:25.319Z,4.00
2019-04-07T04:43:25.551Z,4.00
2019-04-07T04:44:25.693Z,0.00
2019-04-07T04:45:25.299Z,4.00
2019-04-07T04:46:25.898Z,4.00
2019-04-07T04:47:25.286Z,4.00
2019-04-07T04:48:25.922Z,4.00
2019-04-07T04:49:25.255Z,4.00
2019-04-07T04:50:25.848Z,4.00
2019-04-07T04:51:26.028Z,8.00
2019-04-07T04:52:25.202Z,4.00
2019-04-07T04:53:25.662Z,8.00
2019-04-07T04:54:25.814Z,8.00
2019-04-07T04:55:25.514Z,12.00
2019-04-07T04:56:25.950Z,8.00
2019-04-07T04:57:25.237Z,8.00
2019-04-07T04:58:25.873Z,12.00
2019-04-07T04:59:25.775Z,16.00
2019-04-07T05:00:25.112Z,12.00
2019-04-07T05:01:25.295Z,16.00
2019-04-07T05:02:25.779Z,16.00
2019-04-07T05:03:25.089Z,16.00
2019-04-07T05:04:25.076Z,16.00
2019-04-07T05:05:25.580Z,20.00
2019-04-07T05:06:25.375Z,20.00
2019-04-07T05:07:25.033Z,24.00
2019-04-07T05:08:25.823Z,24.00
2019-04-07T05:09:26.977Z,24.00
2019-04-07T05:10:26.576Z,24.00
2019-04-07T05:11:25.008Z,24.00
2019-04-07T05:12:25.212Z,28.00
2019-04-07T05:13:25.070Z,28.00
2019-04-07T05:14:25.780Z,32.00
2019-04-07T05:15:24.942Z,32.00
2019-04-07T05:16:24.954Z,36.00
2019-04-07T05:17:25.254Z,36.00
2019-04-07T05:18:25.586Z,36.00
2019-04-07T05:19:24.914Z,40.00
2019-04-07T05:20:25.215Z,40.00
2019-04-07T05:21:25.065Z,36.00
2019-04-07T05:22:24.867Z,40.00
2019-04-07T05:23:25.154Z,40.00
2019-04-07T05:24:24.841Z,48.00
2019-04-07T05:25:25.010Z,48.00
2019-04-07T05:26:25.478Z,48.00
2019-04-07T05:27:25.111Z,52.00
2019-04-07T05:28:25.448Z,56.00
2019-04-07T05:29:24.839Z,56.00
2019-04-07T05:30:24.774Z,56.00
2019-04-07T05:31:24.783Z,60.00
2019-04-07T05:32:25.205Z,64.00
2019-04-07T05:33:24.741Z,64.00
2019-04-07T05:34:24.734Z,68.00
2019-04-07T05:35:24.932Z,68.00
2019-04-07T05:36:25.237Z,68.00
2019-04-07T05:37:25.331Z,68.00
2019-04-07T05:38:24.684Z,72.00
2019-04-07T05:39:25.010Z,72.00
2019-04-07T05:40:24.663Z,76.00
2019-04-07T05:41:24.674Z,76.00
2019-04-07T05:42:24.679Z,76.00
2019-04-07T05:43:25.207Z,80.00
2019-04-07T05:44:24.618Z,80.00
2019-04-07T05:45:25.313Z,84.00
2019-04-07T05:46:25.046Z,88.00
2019-04-07T05:47:24.605Z,88.00
2019-04-07T05:48:24.931Z,88.00
2019-04-07T05:49:24.562Z,92.00
2019-04-07T05:50:27.452Z,92.00
2019-04-07T05:51:25.045Z,96.00
2019-04-07T05:52:24.554Z,96.00
2019-04-07T05:53:24.517Z,100.00
2019-04-07T05:54:24.958Z,100.00
2019-04-07T05:55:24.659Z,104.00
2019-04-07T05:56:28.109Z,108.00
2019-04-07T05:57:25.056Z,112.00
2019-04-07T05:58:24.464Z,112.00
2019-04-07T05:59:24.450Z,116.00
2019-04-07T06:00:25.090Z,120.00
2019-04-07T06:01:24.658Z,120.00
2019-04-07T06:02:24.497Z,124.00
2019-04-07T06:03:24.415Z,128.00
2019-04-07T06:04:24.914Z,132.00
2019-04-07T06:05:24.514Z,132.00
2019-04-07T06:06:24.372Z,132.00
2019-04-07T06:07:28.826Z,140.00
2019-04-07T06:08:33.792Z,140.00
2019-04-07T06:09:25.340Z,136.00
2019-04-07T06:10:27.733Z,136.00
2019-04-07T06:11:24.819Z,136.00
2019-04-07T06:12:24.326Z,140.00
2019-04-07T06:13:24.758Z,144.00
2019-04-07T06:14:24.445Z,148.00
2019-04-07T06:15:24.728Z,156.00
2019-04-07T06:16:24.670Z,164.00
2019-04-07T06:17:26.329Z,168.00
2019-04-07T06:18:24.920Z,168.00
2019-04-07T06:19:24.951Z,168.00
2019-04-07T06:20:24.755Z,172.00
2019-04-07T06:21:24.338Z,176.00
2019-04-07T06:22:24.784Z,184.00
2019-04-07T06:23:25.801Z,188.00
2019-04-07T06:24:24.389Z,192.00
2019-04-07T06:25:25.048Z,192.00
2019-04-07T06:26:24.150Z,200.00
2019-04-07T06:27:24.161Z,196.00
2019-04-07T06:28:24.755Z,204.00
2019-04-07T06:29:26.171Z,204.00
2019-04-07T06:30:24.103Z,204.00
2019-04-07T06:31:25.833Z,204.00
2019-04-07T06:32:24.431Z,204.00
2019-04-07T06:33:24.070Z,204.00
2019-04-07T06:34:24.907Z,208.00
2019-04-07T06:35:24.050Z,212.00
2019-04-07T06:36:26.303Z,212.00
2019-04-07T06:37:28.817Z,216.00
2019-04-07T06:38:31.208Z,216.00
2019-04-07T06:39:25.010Z,216.00
2019-04-07T06:40:24.214Z,220.00
2019-04-07T06:41:27.331Z,220.00
2019-04-07T06:42:24.967Z,220.00
2019-04-07T06:43:24.743Z,220.00
2019-04-07T06:44:24.277Z,224.00
2019-04-07T06:45:24.491Z,224.00
2019-04-07T06:46:27.641Z,224.00
2019-04-07T06:47:23.914Z,228.00
2019-04-07T06:48:23.924Z,232.00
2019-04-07T06:49:27.549Z,232.00
2019-04-07T06:50:23.879Z,232.00
2019-04-07T06:51:24.035Z,232.00
2019-04-07T06:52:23.932Z,232.00
2019-04-07T06:53:24.550Z,232.00
2019-04-07T06:54:24.538Z,232.00
2019-04-07T06:55:26.649Z,232.00
2019-04-07T06:56:24.300Z,232.00
2019-04-07T06:57:24.453Z,232.00
2019-04-07T06:58:24.322Z,228.00
2019-04-07T06:59:23.778Z,232.00
2019-04-07T07:00:24.912Z,232.00
2019-04-07T07:01:25.803Z,232.00
2019-04-07T07:02:23.973Z,232.00
2019-04-07T07:03:23.808Z,236.00
2019-04-07T07:04:24.392Z,236.00
2019-04-07T07:05:23.711Z,240.00
2019-04-07T07:06:24.126Z,236.00
2019-04-07T07:07:23.688Z,236.00
2019-04-07T07:08:23.701Z,232.00
2019-04-07T07:09:26.438Z,232.00
2019-04-07T07:10:28.864Z,232.00
2019-04-07T07:11:29.298Z,228.00
2019-04-07T07:12:32.296Z,228.00
2019-04-07T07:13:29.813Z,224.00
2019-04-07T07:14:35.224Z,228.00
2019-04-07T07:15:24.649Z,224.00
2019-04-07T07:16:23.952Z,224.00
2019-04-07T07:17:23.576Z,224.00
2019-04-07T07:18:24.097Z,220.00
2019-04-07T07:19:26.242Z,220.00
2019-04-07T07:20:27.607Z,220.00
2019-04-07T07:21:24.727Z,220.00
2019-04-07T07:22:23.613Z,220.00
2019-04-07T07:23:24.084Z,220.00
2019-04-07T07:24:25.398Z,220.00
2019-04-07T07:25:23.486Z,220.00
2019-04-07T07:26:23.511Z,224.00
2019-04-07T07:27:23.902Z,220.00
2019-04-07T07:28:23.678Z,220.00
2019-04-07T07:29:25.281Z,220.00
2019-04-07T07:30:23.436Z,220.00
2019-04-07T07:31:25.415Z,220.00
2019-04-07T07:32:23.409Z,220.00
2019-04-07T07:33:23.509Z,224.00
2019-04-07T07:34:23.413Z,220.00
2019-04-07T07:35:23.518Z,224.00
2019-04-07T07:36:23.974Z,220.00
2019-04-07T07:37:25.401Z,220.00
2019-04-07T07:38:23.352Z,216.00
2019-04-07T07:39:23.356Z,220.00
2019-04-07T07:40:23.317Z,216.00
2019-04-07T07:41:24.284Z,216.00
2019-04-07T07:42:24.446Z,216.00
2019-04-07T07:43:24.016Z,216.00
2019-04-07T07:44:23.542Z,220.00
2019-04-07T07:45:23.944Z,220.00
2019-04-07T07:46:23.821Z,220.00
2019-04-07T07:47:23.242Z,220.00
2019-04-07T07:48:26.196Z,220.00
2019-04-07T07:49:23.238Z,220.00
2019-04-07T07:50:23.331Z,220.00
2019-04-07T07:51:23.627Z,224.00
2019-04-07T07:52:23.323Z,220.00
2019-04-07T07:53:26.952Z,220.00
2019-04-07T07:54:27.754Z,220.00
2019-04-07T07:55:23.149Z,220.00
2019-04-07T07:56:23.390Z,224.00
2019-04-07T07:57:24.035Z,224.00
2019-04-07T07:58:23.602Z,228.00
2019-04-07T07:59:23.125Z,224.00
2019-04-07T08:00:23.096Z,228.00
2019-04-07T08:01:23.528Z,224.00
2019-04-07T08:02:23.718Z,224.00
2019-04-07T08:03:23.091Z,228.00
2019-04-07T08:04:26.482Z,228.00
2019-04-07T08:05:23.767Z,228.00
2019-04-07T08:06:23.030Z,232.00
2019-04-07T08:07:23.639Z,232.00
2019-04-07T08:08:23.443Z,232.00
2019-04-07T08:09:25.182Z,232.00
2019-04-07T08:10:25.084Z,228.00
2019-04-07T08:11:22.973Z,232.00
2019-04-07T08:12:22.967Z,236.00
2019-04-07T08:13:23.542Z,232.00
2019-04-07T08:14:22.939Z,232.00
2019-04-07T08:15:26.288Z,236.00
2019-04-07T08:16:24.032Z,236.00
2019-04-07T08:17:23.821Z,236.00
2019-04-07T08:18:22.947Z,240.00
2019-04-07T08:19:27.866Z,236.00
2019-04-07T08:20:24.234Z,240.00
2019-04-07T08:21:23.534Z,236.00
2019-04-07T08:22:30.631Z,236.00
2019-04-07T08:23:23.834Z,236.00
2019-04-07T08:24:22.931Z,236.00
2019-04-07T08:25:24.731Z,236.00
2019-04-07T08:26:25.095Z,236.00
2019-04-07T08:27:22.790Z,236.00
2019-04-07T08:28:22.779Z,232.00
2019-04-07T08:29:22.908Z,232.00
2019-04-07T08:30:22.966Z,232.00
2019-04-07T08:31:22.964Z,232.00
2019-04-07T08:32:25.940Z,228.00
2019-04-07T08:33:23.770Z,228.00
2019-04-07T08:34:23.197Z,228.00
2019-04-07T08:35:23.283Z,228.00
2019-04-07T08:36:22.763Z,232.00
2019-04-07T08:37:23.335Z,228.00
2019-04-07T08:38:25.878Z,228.00
2019-04-07T08:39:26.865Z,228.00
2019-04-07T08:40:24.230Z,228.00
2019-04-07T08:41:23.403Z,228.00
2019-04-07T08:42:22.695Z,228.00
2019-04-07T08:43:23.576Z,228.00
2019-04-07T08:44:25.468Z,228.00
2019-04-07T08:45:23.099Z,228.00
2019-04-07T08:46:22.581Z,224.00
2019-04-07T08:47:23.362Z,224.00
2019-04-07T08:48:22.555Z,228.00
2019-04-07T08:49:24.020Z,224.00
2019-04-07T08:50:22.806Z,224.00
2019-04-07T08:51:22.522Z,224.00
2019-04-07T08:52:22.518Z,228.00
2019-04-07T08:53:22.898Z,228.00
2019-04-07T08:54:23.127Z,228.00
2019-04-07T08:55:22.588Z,228.00
2019-04-07T08:56:25.747Z,228.00
2019-04-07T08:57:22.609Z,228.00
2019-04-07T08:58:25.716Z,228.00
2019-04-07T08:59:23.433Z,228.00
2019-04-07T09:00:22.425Z,228.00
2019-04-07T09:01:22.433Z,224.00
2019-04-07T09:02:25.474Z,228.00
2019-04-07T09:03:23.393Z,228.00
2019-04-07T09:04:22.375Z,228.00
2019-04-07T09:05:26.860Z,228.00
2019-04-07T09:06:27.261Z,228.00
2019-04-07T09:07:24.621Z,228.00
2019-04-07T09:08:22.730Z,228.00
2019-04-07T09:09:32.564Z,224.00
2019-04-07T09:10:23.308Z,224.00
2019-04-07T09:11:23.579Z,224.00
2019-04-07T09:12:26.367Z,224.00
2019-04-07T09:13:24.027Z,224.00
2019-04-07T09:14:22.334Z,224.00
2019-04-07T09:15:22.460Z,224.00
2019-04-07T09:16:22.507Z,224.00
2019-04-07T09:17:31.551Z,224.00
2019-04-07T09:18:23.326Z,224.00
2019-04-07T09:19:22.510Z,224.00
2019-04-07T09:20:22.196Z,224.00
2019-04-07T09:21:34.210Z,224.00
2019-04-07T09:22:23.302Z,224.00
2019-04-07T09:23:25.150Z,224.00
2019-04-07T09:24:22.372Z,224.00
2019-04-07T09:25:22.641Z,224.00
2019-04-07T09:26:22.913Z,228.00
2019-04-07T09:27:23.485Z,228.00
2019-04-07T09:28:23.967Z,232.00
2019-04-07T09:29:24.986Z,232.00
2019-04-07T09:30:22.308Z,232.00
2019-04-07T09:31:22.115Z,240.00
2019-04-07T09:32:22.569Z,248.00
2019-04-07T09:33:22.713Z,236.00
2019-04-07T09:34:23.001Z,232.00
2019-04-07T09:35:24.086Z,232.00
2019-04-07T09:36:22.343Z,236.00
2019-04-07T09:37:24.330Z,236.00
2019-04-07T09:38:24.897Z,236.00
2019-04-07T09:39:22.469Z,240.00
2019-04-07T09:40:21.979Z,240.00
2019-04-07T09:41:26.166Z,236.00
2019-04-07T09:42:25.700Z,240.00
2019-04-07T09:43:22.481Z,244.00
2019-04-07T09:44:22.073Z,236.00
2019-04-07T09:45:21.922Z,236.00
2019-04-07T09:46:21.917Z,236.00
2019-04-07T09:47:22.602Z,236.00
2019-04-07T09:48:22.957Z,236.00
2019-04-07T09:49:23.554Z,236.00
2019-04-07T09:50:21.884Z,236.00
2019-04-07T09:51:21.893Z,232.00
2019-04-07T09:52:22.127Z,236.00
2019-04-07T09:53:21.830Z,232.00
2019-04-07T09:54:23.282Z,228.00
2019-04-07T09:55:24.322Z,228.00
2019-04-07T09:56:21.798Z,232.00
2019-04-07T09:57:21.805Z,232.00
2019-04-07T09:58:21.773Z,236.00
2019-04-07T09:59:21.763Z,232.00
2019-04-07T10:00:23.939Z,232.00
2019-04-07T10:01:22.257Z,232.00
2019-04-07T10:02:21.750Z,228.00
2019-04-07T10:03:21.716Z,236.00
2019-04-07T10:04:21.710Z,232.00
2019-04-07T10:05:21.694Z,228.00
2019-04-07T10:06:21.683Z,228.00
2019-04-07T10:07:21.695Z,244.00
2019-04-07T10:08:21.665Z,248.00
2019-04-07T10:09:21.787Z,236.00
2019-04-07T10:10:21.643Z,224.00
2019-04-07T10:11:22.024Z,232.00
2019-04-07T10:12:22.021Z,228.00
2019-04-07T10:13:21.631Z,228.00
2019-04-07T10:14:21.868Z,232.00
2019-04-07T10:15:22.340Z,216.00
2019-04-07T10:16:22.206Z,224.00
2019-04-07T10:17:22.246Z,224.00
2019-04-07T10:18:21.570Z,224.00
2019-04-07T10:19:21.565Z,224.00
2019-04-07T10:20:23.135Z,224.00
2019-04-07T10:21:21.766Z,224.00
2019-04-07T10:22:21.504Z,224.00
2019-04-07T10:23:21.974Z,224.00
2019-04-07T10:24:21.486Z,224.00
2019-04-07T10:25:22.379Z,228.00
2019-04-07T10:26:21.460Z,224.00
2019-04-07T10:27:22.317Z,228.00
2019-04-07T10:28:22.294Z,228.00
2019-04-07T10:29:21.913Z,228.00
2019-04-07T10:30:21.415Z,228.00
2019-04-07T10:31:21.405Z,224.00
2019-04-07T10:32:23.672Z,228.00
2019-04-07T10:33:21.534Z,228.00
2019-04-07T10:34:21.499Z,232.00
2019-04-07T10:35:21.427Z,228.00
2019-04-07T10:36:21.634Z,252.00
2019-04-07T10:37:21.931Z,264.00
2019-04-07T10:38:21.441Z,248.00
2019-04-07T10:39:21.315Z,240.00
2019-04-07T10:40:22.521Z,244.00
2019-04-07T10:41:21.749Z,256.00
2019-04-07T10:42:21.898Z,280.00
2019-04-07T10:43:21.293Z,256.00
2019-04-07T10:44:21.382Z,276.00
2019-04-07T10:45:21.785Z,244.00
2019-04-07T10:46:21.559Z,252.00
2019-04-07T10:47:21.261Z,256.00
2019-04-07T10:48:21.239Z,276.00
2019-04-07T10:49:21.362Z,252.00
2019-04-07T10:50:21.192Z,248.00
2019-04-07T10:51:21.191Z,260.00
2019-04-07T10:52:21.451Z,256.00
2019-04-07T10:53:21.159Z,248.00
2019-04-07T10:54:21.309Z,256.00
2019-04-07T10:55:21.136Z,264.00
2019-04-07T10:56:21.251Z,300.00
2019-04-07T10:57:21.120Z,380.00
2019-04-07T10:58:21.923Z,400.00
2019-04-07T10:59:21.114Z,340.00
2019-04-07T11:00:21.358Z,400.00
2019-04-07T11:01:21.088Z,356.00
2019-04-07T11:02:21.059Z,320.00
2019-04-07T11:03:21.359Z,396.00
2019-04-07T11:04:21.803Z,364.00
2019-04-07T11:05:21.742Z,312.00
2019-04-07T11:06:21.611Z,276.00
2019-04-07T11:07:21.644Z,272.00
2019-04-07T11:08:20.991Z,276.00
2019-04-07T11:09:21.160Z,268.00
2019-04-07T11:10:32.893Z,284.00
2019-04-07T11:11:22.376Z,284.00
2019-04-07T11:12:21.159Z,288.00
2019-04-07T11:13:20.984Z,260.00
2019-04-07T11:14:21.723Z,256.00
2019-04-07T11:15:20.917Z,264.00
2019-04-07T11:16:20.905Z,248.00
2019-04-07T11:17:21.570Z,244.00
2019-04-07T11:18:20.883Z,260.00
2019-04-07T11:19:20.890Z,276.00
2019-04-07T11:20:21.480Z,276.00
2019-04-07T11:21:21.483Z,264.00
2019-04-07T11:22:20.837Z,256.00
2019-04-07T11:23:20.825Z,252.00
2019-04-07T11:24:20.835Z,256.00
2019-04-07T11:25:20.806Z,280.00
2019-04-07T11:26:20.902Z,280.00
2019-04-07T11:27:21.136Z,272.00
2019-04-07T11:28:20.881Z,260.00
2019-04-07T11:29:20.779Z,292.00
2019-04-07T11:30:21.353Z,372.00
2019-04-07T11:31:21.237Z,336.00
2019-04-07T11:32:20.724Z,264.00
2019-04-07T11:33:20.923Z,272.00
2019-04-07T11:34:20.723Z,248.00
2019-04-07T11:35:21.128Z,256.00
2019-04-07T11:36:22.558Z,268.00
2019-04-07T11:37:20.669Z,252.00
2019-04-07T11:38:21.266Z,252.00
2019-04-07T11:39:20.667Z,252.00
2019-04-07T11:40:21.055Z,320.00
2019-04-07T11:41:23.477Z,304.00
2019-04-07T11:42:20.619Z,332.00
2019-04-07T11:43:20.822Z,392.00
2019-04-07T11:44:20.612Z,392.00
2019-04-07T11:45:20.801Z,316.00
2019-04-07T11:46:20.567Z,268.00
2019-04-07T11:47:20.763Z,272.00
2019-04-07T11:48:20.983Z,268.00
2019-04-07T11:49:21.374Z,308.00
2019-04-07T11:50:21.256Z,328.00
2019-04-07T11:51:20.631Z,296.00
2019-04-07T11:52:20.508Z,276.00
2019-04-07T11:53:21.216Z,336.00
2019-04-07T11:54:20.486Z,376.00
2019-04-07T11:55:20.492Z,328.00
2019-04-07T11:56:20.699Z,312.00
2019-04-07T11:57:20.535Z,308.00
2019-04-07T11:58:28.981Z,344.00
2019-04-07T11:59:21.953Z,332.00
2019-04-07T12:00:20.648Z,308.00
2019-04-07T12:01:20.400Z,292.00
2019-04-07T12:02:21.617Z,300.00
2019-04-07T12:03:24.807Z,356.00
2019-04-07T12:04:21.714Z,348.00
2019-04-07T12:05:21.121Z,304.00
2019-04-07T12:06:23.412Z,268.00
2019-04-07T12:07:21.909Z,256.00
2019-04-07T12:08:20.393Z,252.00
2019-04-07T12:09:20.682Z,260.00
2019-04-07T12:10:20.375Z,260.00
2019-04-07T12:11:20.289Z,252.00
2019-04-07T12:12:20.284Z,248.00
2019-04-07T12:13:20.952Z,244.00
2019-04-07T12:14:20.370Z,244.00
2019-04-07T12:15:24.188Z,240.00
2019-04-07T12:16:21.993Z,244.00
2019-04-07T12:17:21.008Z,244.00
2019-04-07T12:18:20.408Z,244.00
2019-04-07T12:19:22.794Z,244.00
2019-04-07T12:20:20.748Z,244.00
2019-04-07T12:21:23.221Z,248.00
2019-04-07T12:22:21.680Z,224.00
2019-04-07T12:23:23.319Z,224.00
2019-04-07T12:24:24.643Z,216.00
2019-04-07T12:25:21.058Z,212.00
2019-04-07T12:26:20.469Z,208.00
2019-04-07T12:27:21.613Z,216.00
2019-04-07T12:28:20.562Z,224.00
2019-04-07T12:29:20.086Z,224.00
2019-04-07T12:30:22.397Z,252.00
2019-04-07T12:31:20.088Z,252.00
2019-04-07T12:32:20.270Z,260.00
2019-04-07T12:33:21.013Z,256.00
2019-04-07T12:34:20.031Z,244.00
2019-04-07T12:35:20.321Z,240.00
2019-04-07T12:36:20.544Z,248.00
2019-04-07T12:37:20.632Z,244.00
2019-04-07T12:38:20.913Z,240.00
2019-04-07T12:39:20.263Z,248.00
2019-04-07T12:40:22.218Z,252.00
2019-04-07T12:41:22.202Z,256.00
2019-04-07T12:42:20.275Z,256.00
2019-04-07T12:43:19.936Z,248.00
2019-04-07T12:44:20.138Z,256.00
2019-04-07T12:45:19.908Z,244.00
2019-04-07T12:46:21.010Z,252.00
2019-04-07T12:47:19.885Z,256.00
2019-04-07T12:48:19.887Z,252.00